Aérodrome :
LOGIN :

S'inscrire | Disclaimer

   EN    FR    IT 

 










Légende :    VFR   VFR Marginal   IFR   IFR Intensif   IFR Très Intensif
Visi : 
Plafond : 
>= 8 km
>= 3000ft
5 à 8 km
1000 à 3000 ft
1500m à 5 km
500 à 1000 ft
800 à 1500m
200 à 500 ft
< 800m
< 200 ft
Symboles :   Orages  Brouillard  Fortes neiges  Fortes précipitations  Vent > 20 kt
SIGMETs :   Divers  Orages  Givrage  Turbulence  Onde Orograph.  Cendres Volcan.






- Altitude de l'aérodrome : 436 ft
- Code IATA : BTS


LZIB - Bratislava

DERNIER METAR :
  • 240530Z 32027G39KT 290V350 9999 FEW036 07/M03 Q1019 NOSIG

METARs EXPIRÉS :
  • 240500Z 32028G38KT CAVOK 07/M03 Q1018 NOSIG
  • 240430Z 32021G40KT 9999 FEW037 07/M03 Q1018
  • 240400Z 32024KT CAVOK 08/M02 Q1017
  • 240330Z 32025KT CAVOK 08/M02 Q1016
  • 240300Z 32028G39KT 9999 FEW038 BKN056 BKN073 08/M01 Q1015
  • 240248Z 32030G44KT 9999 FEW038 SCT057 BKN076 08/M01 Q1015

TAF TAF LZIB
Valide du 24 à 06h jusqu'au 25 à 06h UTC


240500Z 2406/2506 32020KT 9999 FEW045 BKN090
TEMPO 2406/2408 33028G40KT
BECMG 2410/2412 31013KT
BECMG 2418/2420 17006KT
TEMPO 2418/2500 -RA FEW022 BKN050
BECMG 2500/2502 22010KT CAVOK



MET'MAP, la Météo Aéronautique d'un coup d'oeil ! - Copyright ORBIFLY Décembre 2007 - Disclaimer

ORBIFLY MET'MAP TEAM :

Programmation & Développement : Alexandra Zaïnal
Sur une idée originale de : Baudouin d'Aumeries
Assistance à la programmation : Marc-Olivier Méhu
Soutien technique & logistique : Manuel Goepfert

Contact : metmap@orbifly.com




SOURCES & CREDITS :

   NOAA